sensor_id;sensor_type;location;lat;lon;timestamp;P1;P2;P0
69123;PMS5003;56232;53.384;-2.732;2023-04-30T00:00:30;19;19;
69123;PMS5003;56232;53.384;-2.732;2023-04-30T00:02:55;19;18;
69123;PMS5003;56232;53.384;-2.732;2023-04-30T00:05:21;21;18;
69123;PMS5003;56232;53.384;-2.732;2023-04-30T00:07:47;21;20;
69123;PMS5003;56232;53.384;-2.732;2023-04-30T00:10:12;18;18;
69123;PMS5003;56232;53.384;-2.732;2023-04-30T00:12:37;21;20;
69123;PMS5003;56232;53.384;-2.732;2023-04-30T00:15:03;19;19;
69123;PMS5003;56232;53.384;-2.732;2023-04-30T00:17:29;21;21;
69123;PMS5003;56232;53.384;-2.732;2023-04-30T00:19:55;22;21;
69123;PMS5003;56232;53.384;-2.732;2023-04-30T00:22:20;22;22;
69123;PMS5003;56232;53.384;-2.732;2023-04-30T00:24:45;21;21;
69123;PMS5003;56232;53.384;-2.732;2023-04-30T00:27:11;20;18;
69123;PMS5003;56232;53.384;-2.732;2023-04-30T00:29:36;19;19;
69123;PMS5003;56232;53.384;-2.732;2023-04-30T00:32:01;24;20;
69123;PMS5003;56232;53.384;-2.732;2023-04-30T00:34:27;23;23;
69123;PMS5003;56232;53.384;-2.732;2023-04-30T00:36:53;22;22;
69123;PMS5003;56232;53.384;-2.732;2023-04-30T00:39:17;21;21;
69123;PMS5003;56232;53.384;-2.732;2023-04-30T00:41:43;20;20;
69123;PMS5003;56232;53.384;-2.732;2023-04-30T00:44:08;28;25;
69123;PMS5003;56232;53.384;-2.732;2023-04-30T00:46:33;23;22;
69123;PMS5003;56232;53.384;-2.732;2023-04-30T00:48:58;28;27;
69123;PMS5003;56232;53.384;-2.732;2023-04-30T00:51:24;28;26;
69123;PMS5003;56232;53.384;-2.732;2023-04-30T00:53:49;26;26;
69123;PMS5003;56232;53.384;-2.732;2023-04-30T00:56:14;24;23;
69123;PMS5003;56232;53.384;-2.732;2023-04-30T00:58:39;24;24;
69123;PMS5003;56232;53.384;-2.732;2023-04-30T01:01:05;28;25;
69123;PMS5003;56232;53.384;-2.732;2023-04-30T01:03:30;25;25;
69123;PMS5003;56232;53.384;-2.732;2023-04-30T01:05:56;30;26;
69123;PMS5003;56232;53.384;-2.732;2023-04-30T01:08:21;31;27;
69123;PMS5003;56232;53.384;-2.732;2023-04-30T01:10:49;24;24;
69123;PMS5003;56232;53.384;-2.732;2023-04-30T01:13:15;25;25;
69123;PMS5003;56232;53.384;-2.732;2023-04-30T01:15:40;26;23;
69123;PMS5003;56232;53.384;-2.732;2023-04-30T01:18:04;25;25;
69123;PMS5003;56232;53.384;-2.732;2023-04-30T01:20:29;23;23;
69123;PMS5003;56232;53.384;-2.732;2023-04-30T01:22:57;28;24;
69123;PMS5003;56232;53.384;-2.732;2023-04-30T01:25:24;28;26;
69123;PMS5003;56232;53.384;-2.732;2023-04-30T01:30:11;25;25;
69123;PMS5003;56232;53.384;-2.732;2023-04-30T01:32:37;27;27;
69123;PMS5003;56232;53.384;-2.732;2023-04-30T01:35:02;28;26;
69123;PMS5003;56232;53.384;-2.732;2023-04-30T01:37:29;29;29;
69123;PMS5003;56232;53.384;-2.732;2023-04-30T01:39:56;25;25;
69123;PMS5003;56232;53.384;-2.732;2023-04-30T01:42:19;33;30;
69123;PMS5003;56232;53.384;-2.732;2023-04-30T01:44:48;25;25;
69123;PMS5003;56232;53.384;-2.732;2023-04-30T01:47:12;31;28;
69123;PMS5003;56232;53.384;-2.732;2023-04-30T01:49:38;27;27;
69123;PMS5003;56232;53.384;-2.732;2023-04-30T01:52:02;32;29;
69123;PMS5003;56232;53.384;-2.732;2023-04-30T01:54:28;31;30;
69123;PMS5003;56232;53.384;-2.732;2023-04-30T01:56:53;31;28;
69123;PMS5003;56232;53.384;-2.732;2023-04-30T01:59:16;26;26;
69123;PMS5003;56232;53.384;-2.732;2023-04-30T02:01:42;32;31;
69123;PMS5003;56232;53.384;-2.732;2023-04-30T02:04:07;29;27;
69123;PMS5003;56232;53.384;-2.732;2023-04-30T02:06:33;33;30;
69123;PMS5003;56232;53.384;-2.732;2023-04-30T02:08:59;33;29;
69123;PMS5003;56232;53.384;-2.732;2023-04-30T02:11:25;30;28;
69123;PMS5003;56232;53.384;-2.732;2023-04-30T02:13:50;32;32;
69123;PMS5003;56232;53.384;-2.732;2023-04-30T02:16:15;32;31;
69123;PMS5003;56232;53.384;-2.732;2023-04-30T02:18:41;37;33;
69123;PMS5003;56232;53.384;-2.732;2023-04-30T02:21:06;31;28;
69123;PMS5003;56232;53.384;-2.732;2023-04-30T02:23:31;35;33;
69123;PMS5003;56232;53.384;-2.732;2023-04-30T02:25:57;35;32;
69123;PMS5003;56232;53.384;-2.732;2023-04-30T02:28:22;46;45;
69123;PMS5003;56232;53.384;-2.732;2023-04-30T02:30:48;43;39;
69123;PMS5003;56232;53.384;-2.732;2023-04-30T02:33:13;54;49;
69123;PMS5003;56232;53.384;-2.732;2023-04-30T02:35:39;54;50;
69123;PMS5003;56232;53.384;-2.732;2023-04-30T02:38:05;53;50;
69123;PMS5003;56232;53.384;-2.732;2023-04-30T02:40:30;54;53;
69123;PMS5003;56232;53.384;-2.732;2023-04-30T02:42:55;61;60;
69123;PMS5003;56232;53.384;-2.732;2023-04-30T02:45:21;66;61;
69123;PMS5003;56232;53.384;-2.732;2023-04-30T02:47:46;68;65;
69123;PMS5003;56232;53.384;-2.732;2023-04-30T02:50:12;62;59;
69123;PMS5003;56232;53.384;-2.732;2023-04-30T02:52:37;62;59;
69123;PMS5003;56232;53.384;-2.732;2023-04-30T02:55:03;63;59;
69123;PMS5003;56232;53.384;-2.732;2023-04-30T02:57:28;60;57;
69123;PMS5003;56232;53.384;-2.732;2023-04-30T02:59:54;66;63;
69123;PMS5003;56232;53.384;-2.732;2023-04-30T03:02:19;71;64;
69123;PMS5003;56232;53.384;-2.732;2023-04-30T03:04:45;66;63;
69123;PMS5003;56232;53.384;-2.732;2023-04-30T03:07:10;60;59;
69123;PMS5003;56232;53.384;-2.732;2023-04-30T03:09:35;59;58;
69123;PMS5003;56232;53.384;-2.732;2023-04-30T03:12:01;61;56;
69123;PMS5003;56232;53.384;-2.732;2023-04-30T03:14:26;49;48;
69123;PMS5003;56232;53.384;-2.732;2023-04-30T03:16:52;47;46;
69123;PMS5003;56232;53.384;-2.732;2023-04-30T03:19:17;43;40;
69123;PMS5003;56232;53.384;-2.732;2023-04-30T03:21:42;47;42;
69123;PMS5003;56232;53.384;-2.732;2023-04-30T03:24:07;49;44;
69123;PMS5003;56232;53.384;-2.732;2023-04-30T03:26:33;36;34;
69123;PMS5003;56232;53.384;-2.732;2023-04-30T03:28:59;40;39;
69123;PMS5003;56232;53.384;-2.732;2023-04-30T03:31:25;37;37;
69123;PMS5003;56232;53.384;-2.732;2023-04-30T03:33:50;35;33;
69123;PMS5003;56232;53.384;-2.732;2023-04-30T03:36:16;39;35;
69123;PMS5003;56232;53.384;-2.732;2023-04-30T03:38:42;38;38;
69123;PMS5003;56232;53.384;-2.732;2023-04-30T03:41:07;43;42;
69123;PMS5003;56232;53.384;-2.732;2023-04-30T03:43:33;49;45;
69123;PMS5003;56232;53.384;-2.732;2023-04-30T03:45:58;45;41;
69123;PMS5003;56232;53.384;-2.732;2023-04-30T03:48:24;50;45;
69123;PMS5003;56232;53.384;-2.732;2023-04-30T03:50:49;43;43;
69123;PMS5003;56232;53.384;-2.732;2023-04-30T03:53:15;45;41;
69123;PMS5003;56232;53.384;-2.732;2023-04-30T03:55:41;51;45;
69123;PMS5003;56232;53.384;-2.732;2023-04-30T03:58:06;51;45;
69123;PMS5003;56232;53.384;-2.732;2023-04-30T04:00:32;49;45;
69123;PMS5003;56232;53.384;-2.732;2023-04-30T04:02:57;45;42;
69123;PMS5003;56232;53.384;-2.732;2023-04-30T04:05:23;47;46;
69123;PMS5003;56232;53.384;-2.732;2023-04-30T04:07:48;43;42;
69123;PMS5003;56232;53.384;-2.732;2023-04-30T04:10:14;49;46;
69123;PMS5003;56232;53.384;-2.732;2023-04-30T04:12:40;57;53;
69123;PMS5003;56232;53.384;-2.732;2023-04-30T04:15:05;60;52;
69123;PMS5003;56232;53.384;-2.732;2023-04-30T04:17:30;54;49;
69123;PMS5003;56232;53.384;-2.732;2023-04-30T04:19:56;45;41;
69123;PMS5003;56232;53.384;-2.732;2023-04-30T04:22:21;41;39;
69123;PMS5003;56232;53.384;-2.732;2023-04-30T04:24:47;49;45;
69123;PMS5003;56232;53.384;-2.732;2023-04-30T04:27:12;42;41;
69123;PMS5003;56232;53.384;-2.732;2023-04-30T04:29:37;40;39;
69123;PMS5003;56232;53.384;-2.732;2023-04-30T04:32:03;61;56;
69123;PMS5003;56232;53.384;-2.732;2023-04-30T04:34:28;56;52;
69123;PMS5003;56232;53.384;-2.732;2023-04-30T04:36:54;53;51;
69123;PMS5003;56232;53.384;-2.732;2023-04-30T04:39:19;57;51;
69123;PMS5003;56232;53.384;-2.732;2023-04-30T04:41:45;54;49;
69123;PMS5003;56232;53.384;-2.732;2023-04-30T04:44:10;47;44;
69123;PMS5003;56232;53.384;-2.732;2023-04-30T04:46:35;51;51;
69123;PMS5003;56232;53.384;-2.732;2023-04-30T04:49:01;59;54;
69123;PMS5003;56232;53.384;-2.732;2023-04-30T04:51:27;56;51;
69123;PMS5003;56232;53.384;-2.732;2023-04-30T04:53:52;58;52;
69123;PMS5003;56232;53.384;-2.732;2023-04-30T04:56:17;58;53;
69123;PMS5003;56232;53.384;-2.732;2023-04-30T04:58:43;58;56;
69123;PMS5003;56232;53.384;-2.732;2023-04-30T05:01:08;59;55;
69123;PMS5003;56232;53.384;-2.732;2023-04-30T05:03:33;49;47;
69123;PMS5003;56232;53.384;-2.732;2023-04-30T05:05:58;51;46;
69123;PMS5003;56232;53.384;-2.732;2023-04-30T05:08:24;43;41;
69123;PMS5003;56232;53.384;-2.732;2023-04-30T05:10:49;52;49;
69123;PMS5003;56232;53.384;-2.732;2023-04-30T05:13:15;52;46;
69123;PMS5003;56232;53.384;-2.732;2023-04-30T05:15:40;45;42;
69123;PMS5003;56232;53.384;-2.732;2023-04-30T05:18:06;43;42;
69123;PMS5003;56232;53.384;-2.732;2023-04-30T05:20:32;44;42;
69123;PMS5003;56232;53.384;-2.732;2023-04-30T05:22:57;50;47;
69123;PMS5003;56232;53.384;-2.732;2023-04-30T05:25:22;56;51;
69123;PMS5003;56232;53.384;-2.732;2023-04-30T05:27:48;46;43;
69123;PMS5003;56232;53.384;-2.732;2023-04-30T05:30:13;46;44;
69123;PMS5003;56232;53.384;-2.732;2023-04-30T05:32:39;46;45;
69123;PMS5003;56232;53.384;-2.732;2023-04-30T05:35:04;48;46;
69123;PMS5003;56232;53.384;-2.732;2023-04-30T05:37:29;55;48;
69123;PMS5003;56232;53.384;-2.732;2023-04-30T05:39:55;54;49;
69123;PMS5003;56232;53.384;-2.732;2023-04-30T05:42:20;56;47;
69123;PMS5003;56232;53.384;-2.732;2023-04-30T05:44:45;52;46;
69123;PMS5003;56232;53.384;-2.732;2023-04-30T05:47:11;40;38;
69123;PMS5003;56232;53.384;-2.732;2023-04-30T05:49:36;50;46;
69123;PMS5003;56232;53.384;-2.732;2023-04-30T05:52:02;42;39;
69123;PMS5003;56232;53.384;-2.732;2023-04-30T05:54:27;45;41;
69123;PMS5003;56232;53.384;-2.732;2023-04-30T05:56:53;51;45;
69123;PMS5003;56232;53.384;-2.732;2023-04-30T05:59:18;47;41;
69123;PMS5003;56232;53.384;-2.732;2023-04-30T06:01:43;40;39;
69123;PMS5003;56232;53.384;-2.732;2023-04-30T06:04:09;45;41;
69123;PMS5003;56232;53.384;-2.732;2023-04-30T06:06:34;43;42;
69123;PMS5003;56232;53.384;-2.732;2023-04-30T06:09:00;41;40;
69123;PMS5003;56232;53.384;-2.732;2023-04-30T06:11:25;47;44;
69123;PMS5003;56232;53.384;-2.732;2023-04-30T06:13:51;47;40;
69123;PMS5003;56232;53.384;-2.732;2023-04-30T06:16:16;37;34;
69123;PMS5003;56232;53.384;-2.732;2023-04-30T06:18:42;51;44;
69123;PMS5003;56232;53.384;-2.732;2023-04-30T06:21:07;54;44;
69123;PMS5003;56232;53.384;-2.732;2023-04-30T06:23:33;46;40;
69123;PMS5003;56232;53.384;-2.732;2023-04-30T06:25:58;46;42;
69123;PMS5003;56232;53.384;-2.732;2023-04-30T06:28:24;43;39;
69123;PMS5003;56232;53.384;-2.732;2023-04-30T06:30:49;46;42;
69123;PMS5003;56232;53.384;-2.732;2023-04-30T06:33:15;42;40;
69123;PMS5003;56232;53.384;-2.732;2023-04-30T06:35:40;42;38;
69123;PMS5003;56232;53.384;-2.732;2023-04-30T06:38:06;36;36;
69123;PMS5003;56232;53.384;-2.732;2023-04-30T06:40:31;41;38;
69123;PMS5003;56232;53.384;-2.732;2023-04-30T06:42:57;41;38;
69123;PMS5003;56232;53.384;-2.732;2023-04-30T06:45:22;38;36;
69123;PMS5003;56232;53.384;-2.732;2023-04-30T06:47:47;37;36;
69123;PMS5003;56232;53.384;-2.732;2023-04-30T06:50:13;43;39;
69123;PMS5003;56232;53.384;-2.732;2023-04-30T06:52:39;35;32;
69123;PMS5003;56232;53.384;-2.732;2023-04-30T06:55:04;32;31;
69123;PMS5003;56232;53.384;-2.732;2023-04-30T06:57:30;37;30;
69123;PMS5003;56232;53.384;-2.732;2023-04-30T06:59:55;29;28;
69123;PMS5003;56232;53.384;-2.732;2023-04-30T07:02:20;34;32;
69123;PMS5003;56232;53.384;-2.732;2023-04-30T07:04:46;34;33;
69123;PMS5003;56232;53.384;-2.732;2023-04-30T07:07:11;34;30;
69123;PMS5003;56232;53.384;-2.732;2023-04-30T07:09:37;40;35;
69123;PMS5003;56232;53.384;-2.732;2023-04-30T07:12:02;33;30;
69123;PMS5003;56232;53.384;-2.732;2023-04-30T07:14:27;33;32;
69123;PMS5003;56232;53.384;-2.732;2023-04-30T07:16:53;37;35;
69123;PMS5003;56232;53.384;-2.732;2023-04-30T07:19:18;37;33;
69123;PMS5003;56232;53.384;-2.732;2023-04-30T07:21:44;32;30;
69123;PMS5003;56232;53.384;-2.732;2023-04-30T07:24:10;34;30;
69123;PMS5003;56232;53.384;-2.732;2023-04-30T07:26:35;33;28;
69123;PMS5003;56232;53.384;-2.732;2023-04-30T07:29:01;26;25;
69123;PMS5003;56232;53.384;-2.732;2023-04-30T07:31:26;38;33;
69123;PMS5003;56232;53.384;-2.732;2023-04-30T07:33:52;33;30;
69123;PMS5003;56232;53.384;-2.732;2023-04-30T07:36:17;27;27;
69123;PMS5003;56232;53.384;-2.732;2023-04-30T07:38:43;30;27;
69123;PMS5003;56232;53.384;-2.732;2023-04-30T07:41:09;32;30;
69123;PMS5003;56232;53.384;-2.732;2023-04-30T07:43:34;28;26;
69123;PMS5003;56232;53.384;-2.732;2023-04-30T07:45:59;33;29;
69123;PMS5003;56232;53.384;-2.732;2023-04-30T07:48:25;24;24;
69123;PMS5003;56232;53.384;-2.732;2023-04-30T07:50:50;27;23;
69123;PMS5003;56232;53.384;-2.732;2023-04-30T07:53:16;28;23;
69123;PMS5003;56232;53.384;-2.732;2023-04-30T07:55:41;22;21;
69123;PMS5003;56232;53.384;-2.732;2023-04-30T07:58:06;26;24;
69123;PMS5003;56232;53.384;-2.732;2023-04-30T08:00:31;29;24;
69123;PMS5003;56232;53.384;-2.732;2023-04-30T08:02:56;24;23;
69123;PMS5003;56232;53.384;-2.732;2023-04-30T08:05:21;22;20;
69123;PMS5003;56232;53.384;-2.732;2023-04-30T08:07:47;24;22;
69123;PMS5003;56232;53.384;-2.732;2023-04-30T08:10:13;25;24;
69123;PMS5003;56232;53.384;-2.732;2023-04-30T08:12:38;23;23;
69123;PMS5003;56232;53.384;-2.732;2023-04-30T08:15:04;25;22;
69123;PMS5003;56232;53.384;-2.732;2023-04-30T08:17:28;26;22;
69123;PMS5003;56232;53.384;-2.732;2023-04-30T08:19:54;24;21;
69123;PMS5003;56232;53.384;-2.732;2023-04-30T08:22:19;23;23;
69123;PMS5003;56232;53.384;-2.732;2023-04-30T08:24:44;25;24;
69123;PMS5003;56232;53.384;-2.732;2023-04-30T08:27:10;24;23;
69123;PMS5003;56232;53.384;-2.732;2023-04-30T08:29:35;23;23;
69123;PMS5003;56232;53.384;-2.732;2023-04-30T08:32:01;25;23;
69123;PMS5003;56232;53.384;-2.732;2023-04-30T08:34:26;24;23;
69123;PMS5003;56232;53.384;-2.732;2023-04-30T08:36:51;27;25;
69123;PMS5003;56232;53.384;-2.732;2023-04-30T08:39:16;23;21;
69123;PMS5003;56232;53.384;-2.732;2023-04-30T08:41:42;26;23;
69123;PMS5003;56232;53.384;-2.732;2023-04-30T08:44:07;25;23;
69123;PMS5003;56232;53.384;-2.732;2023-04-30T08:46:33;29;27;
69123;PMS5003;56232;53.384;-2.732;2023-04-30T08:48:59;24;24;
69123;PMS5003;56232;53.384;-2.732;2023-04-30T08:51:25;19;18;
69123;PMS5003;56232;53.384;-2.732;2023-04-30T08:53:50;25;24;
69123;PMS5003;56232;53.384;-2.732;2023-04-30T08:56:15;22;22;
69123;PMS5003;56232;53.384;-2.732;2023-04-30T08:58:40;29;24;
69123;PMS5003;56232;53.384;-2.732;2023-04-30T09:01:05;24;21;
69123;PMS5003;56232;53.384;-2.732;2023-04-30T09:03:31;25;22;
69123;PMS5003;56232;53.384;-2.732;2023-04-30T09:05:56;25;21;
69123;PMS5003;56232;53.384;-2.732;2023-04-30T09:10:47;27;22;
69123;PMS5003;56232;53.384;-2.732;2023-04-30T09:13:13;20;20;
69123;PMS5003;56232;53.384;-2.732;2023-04-30T09:15:38;19;19;
69123;PMS5003;56232;53.384;-2.732;2023-04-30T09:18:05;19;18;
69123;PMS5003;56232;53.384;-2.732;2023-04-30T09:20:29;21;21;
69123;PMS5003;56232;53.384;-2.732;2023-04-30T09:23:03;26;24;
69123;PMS5003;56232;53.384;-2.732;2023-04-30T09:25:20;14;14;
69123;PMS5003;56232;53.384;-2.732;2023-04-30T09:27:45;18;18;
69123;PMS5003;56232;53.384;-2.732;2023-04-30T09:30:13;14;14;
69123;PMS5003;56232;53.384;-2.732;2023-04-30T09:35:02;21;21;
69123;PMS5003;56232;53.384;-2.732;2023-04-30T09:39:54;18;17;
69123;PMS5003;56232;53.384;-2.732;2023-04-30T09:42:19;21;19;
69123;PMS5003;56232;53.384;-2.732;2023-04-30T09:44:44;23;22;
69123;PMS5003;56232;53.384;-2.732;2023-04-30T09:47:10;18;18;
69123;PMS5003;56232;53.384;-2.732;2023-04-30T09:49:36;16;15;
69123;PMS5003;56232;53.384;-2.732;2023-04-30T09:52:00;15;14;
69123;PMS5003;56232;53.384;-2.732;2023-04-30T09:54:28;17;17;
69123;PMS5003;56232;53.384;-2.732;2023-04-30T09:56:51;16;16;
69123;PMS5003;56232;53.384;-2.732;2023-04-30T09:59:16;14;14;
69123;PMS5003;56232;53.384;-2.732;2023-04-30T10:01:42;14;14;
69123;PMS5003;56232;53.384;-2.732;2023-04-30T10:04:07;14;14;
69123;PMS5003;56232;53.384;-2.732;2023-04-30T10:06:33;15;15;
69123;PMS5003;56232;53.384;-2.732;2023-04-30T10:08:58;12;11;
69123;PMS5003;56232;53.384;-2.732;2023-04-30T10:11:25;12;11;
69123;PMS5003;56232;53.384;-2.732;2023-04-30T10:13:51;19;16;
69123;PMS5003;56232;53.384;-2.732;2023-04-30T10:16:17;13;13;
69123;PMS5003;56232;53.384;-2.732;2023-04-30T10:18:41;15;15;
69123;PMS5003;56232;53.384;-2.732;2023-04-30T10:21:06;16;15;
69123;PMS5003;56232;53.384;-2.732;2023-04-30T10:23:31;13;13;
69123;PMS5003;56232;53.384;-2.732;2023-04-30T10:25:57;14;14;
69123;PMS5003;56232;53.384;-2.732;2023-04-30T10:28:22;15;15;
69123;PMS5003;56232;53.384;-2.732;2023-04-30T10:30:48;13;13;
69123;PMS5003;56232;53.384;-2.732;2023-04-30T10:33:16;13;13;
69123;PMS5003;56232;53.384;-2.732;2023-04-30T10:35:40;14;13;
69123;PMS5003;56232;53.384;-2.732;2023-04-30T10:38:07;16;13;
69123;PMS5003;56232;53.384;-2.732;2023-04-30T10:40:34;14;13;
69123;PMS5003;56232;53.384;-2.732;2023-04-30T10:42:55;12;11;
69123;PMS5003;56232;53.384;-2.732;2023-04-30T10:47:45;14;13;
69123;PMS5003;56232;53.384;-2.732;2023-04-30T10:50:11;14;14;
69123;PMS5003;56232;53.384;-2.732;2023-04-30T10:52:37;11;11;
69123;PMS5003;56232;53.384;-2.732;2023-04-30T10:55:03;16;12;
69123;PMS5003;56232;53.384;-2.732;2023-04-30T10:57:28;16;16;
69123;PMS5003;56232;53.384;-2.732;2023-04-30T11:02:18;11;11;
69123;PMS5003;56232;53.384;-2.732;2023-04-30T11:07:10;12;11;
69123;PMS5003;56232;53.384;-2.732;2023-04-30T11:09:36;18;17;
69123;PMS5003;56232;53.384;-2.732;2023-04-30T11:12:01;15;15;
69123;PMS5003;56232;53.384;-2.732;2023-04-30T11:14:26;14;13;
69123;PMS5003;56232;53.384;-2.732;2023-04-30T11:16:52;13;13;
69123;PMS5003;56232;53.384;-2.732;2023-04-30T11:19:17;18;13;
69123;PMS5003;56232;53.384;-2.732;2023-04-30T11:24:08;17;16;
69123;PMS5003;56232;53.384;-2.732;2023-04-30T11:28:59;22;19;
69123;PMS5003;56232;53.384;-2.732;2023-04-30T11:33:50;16;16;
69123;PMS5003;56232;53.384;-2.732;2023-04-30T11:36:15;17;16;
69123;PMS5003;56232;53.384;-2.732;2023-04-30T11:38:41;17;16;
69123;PMS5003;56232;53.384;-2.732;2023-04-30T11:41:07;21;17;
69123;PMS5003;56232;53.384;-2.732;2023-04-30T11:43:32;19;18;
69123;PMS5003;56232;53.384;-2.732;2023-04-30T11:45:58;17;16;
69123;PMS5003;56232;53.384;-2.732;2023-04-30T11:48:23;20;19;
69123;PMS5003;56232;53.384;-2.732;2023-04-30T11:50:48;22;19;
69123;PMS5003;56232;53.384;-2.732;2023-04-30T11:53:14;21;18;
69123;PMS5003;56232;53.384;-2.732;2023-04-30T11:55:39;18;18;
69123;PMS5003;56232;53.384;-2.732;2023-04-30T11:58:07;21;18;
69123;PMS5003;56232;53.384;-2.732;2023-04-30T12:00:30;20;19;
69123;PMS5003;56232;53.384;-2.732;2023-04-30T12:02:57;18;17;
69123;PMS5003;56232;53.384;-2.732;2023-04-30T12:05:22;16;15;
69123;PMS5003;56232;53.384;-2.732;2023-04-30T12:07:47;19;18;
69123;PMS5003;56232;53.384;-2.732;2023-04-30T12:10:12;18;17;
69123;PMS5003;56232;53.384;-2.732;2023-04-30T12:12:37;13;13;
69123;PMS5003;56232;53.384;-2.732;2023-04-30T12:17:29;16;15;
69123;PMS5003;56232;53.384;-2.732;2023-04-30T12:19:54;16;15;
69123;PMS5003;56232;53.384;-2.732;2023-04-30T12:22:19;16;16;
69123;PMS5003;56232;53.384;-2.732;2023-04-30T12:24:45;13;12;
69123;PMS5003;56232;53.384;-2.732;2023-04-30T12:27:10;14;13;
69123;PMS5003;56232;53.384;-2.732;2023-04-30T12:29:35;13;12;
69123;PMS5003;56232;53.384;-2.732;2023-04-30T12:32:01;12;12;
69123;PMS5003;56232;53.384;-2.732;2023-04-30T12:34:26;14;13;
69123;PMS5003;56232;53.384;-2.732;2023-04-30T12:36:52;15;15;
69123;PMS5003;56232;53.384;-2.732;2023-04-30T12:39:17;15;14;
69123;PMS5003;56232;53.384;-2.732;2023-04-30T12:41:43;15;15;
69123;PMS5003;56232;53.384;-2.732;2023-04-30T12:46:33;13;13;
69123;PMS5003;56232;53.384;-2.732;2023-04-30T12:48:58;14;13;
69123;PMS5003;56232;53.384;-2.732;2023-04-30T12:51:24;14;14;
69123;PMS5003;56232;53.384;-2.732;2023-04-30T12:53:49;13;12;
69123;PMS5003;56232;53.384;-2.732;2023-04-30T12:56:15;13;12;
69123;PMS5003;56232;53.384;-2.732;2023-04-30T12:58:40;16;16;
69123;PMS5003;56232;53.384;-2.732;2023-04-30T13:01:09;16;14;
69123;PMS5003;56232;53.384;-2.732;2023-04-30T13:03:31;14;13;
69123;PMS5003;56232;53.384;-2.732;2023-04-30T13:05:57;14;14;
69123;PMS5003;56232;53.384;-2.732;2023-04-30T13:08:22;11;11;
69123;PMS5003;56232;53.384;-2.732;2023-04-30T13:10:48;15;15;
69123;PMS5003;56232;53.384;-2.732;2023-04-30T13:13:13;12;11;
69123;PMS5003;56232;53.384;-2.732;2023-04-30T13:15:39;13;13;
69123;PMS5003;56232;53.384;-2.732;2023-04-30T13:18:04;13;13;
69123;PMS5003;56232;53.384;-2.732;2023-04-30T13:20:29;13;12;
69123;PMS5003;56232;53.384;-2.732;2023-04-30T13:22:55;13;13;
69123;PMS5003;56232;53.384;-2.732;2023-04-30T13:25:20;13;13;
69123;PMS5003;56232;53.384;-2.732;2023-04-30T13:27:46;13;12;
69123;PMS5003;56232;53.384;-2.732;2023-04-30T13:30:12;15;15;
69123;PMS5003;56232;53.384;-2.732;2023-04-30T13:32:37;15;14;
69123;PMS5003;56232;53.384;-2.732;2023-04-30T13:35:03;15;14;
69123;PMS5003;56232;53.384;-2.732;2023-04-30T13:37:28;15;14;
69123;PMS5003;56232;53.384;-2.732;2023-04-30T13:39:54;15;15;
69123;PMS5003;56232;53.384;-2.732;2023-04-30T13:42:19;11;11;
69123;PMS5003;56232;53.384;-2.732;2023-04-30T13:44:44;13;13;
69123;PMS5003;56232;53.384;-2.732;2023-04-30T13:47:10;15;14;
69123;PMS5003;56232;53.384;-2.732;2023-04-30T13:49:36;14;13;
69123;PMS5003;56232;53.384;-2.732;2023-04-30T13:52:02;16;15;
69123;PMS5003;56232;53.384;-2.732;2023-04-30T13:54:27;11;11;
69123;PMS5003;56232;53.384;-2.732;2023-04-30T13:56:53;12;11;
69123;PMS5003;56232;53.384;-2.732;2023-04-30T13:59:23;14;13;
69123;PMS5003;56232;53.384;-2.732;2023-04-30T14:01:43;20;15;
69123;PMS5003;56232;53.384;-2.732;2023-04-30T14:04:09;13;13;
69123;PMS5003;56232;53.384;-2.732;2023-04-30T14:06:34;14;13;
69123;PMS5003;56232;53.384;-2.732;2023-04-30T14:09:00;14;13;
69123;PMS5003;56232;53.384;-2.732;2023-04-30T14:11:25;12;12;
69123;PMS5003;56232;53.384;-2.732;2023-04-30T14:13:51;13;13;
69123;PMS5003;56232;53.384;-2.732;2023-04-30T14:16:17;14;14;
69123;PMS5003;56232;53.384;-2.732;2023-04-30T14:18:42;13;13;
69123;PMS5003;56232;53.384;-2.732;2023-04-30T14:21:08;15;14;
69123;PMS5003;56232;53.384;-2.732;2023-04-30T14:23:34;13;13;
69123;PMS5003;56232;53.384;-2.732;2023-04-30T14:25:59;11;11;
69123;PMS5003;56232;53.384;-2.732;2023-04-30T14:28:25;12;12;
69123;PMS5003;56232;53.384;-2.732;2023-04-30T14:30:51;11;11;
69123;PMS5003;56232;53.384;-2.732;2023-04-30T14:33:16;13;12;
69123;PMS5003;56232;53.384;-2.732;2023-04-30T14:35:42;13;12;
69123;PMS5003;56232;53.384;-2.732;2023-04-30T14:38:07;12;12;
69123;PMS5003;56232;53.384;-2.732;2023-04-30T14:40:33;11;11;
69123;PMS5003;56232;53.384;-2.732;2023-04-30T14:42:59;12;12;
69123;PMS5003;56232;53.384;-2.732;2023-04-30T14:45:24;11;11;
69123;PMS5003;56232;53.384;-2.732;2023-04-30T14:47:50;14;13;
69123;PMS5003;56232;53.384;-2.732;2023-04-30T14:50:16;13;11;
69123;PMS5003;56232;53.384;-2.732;2023-04-30T14:52:41;11;11;
69123;PMS5003;56232;53.384;-2.732;2023-04-30T14:55:07;10;10;
69123;PMS5003;56232;53.384;-2.732;2023-04-30T14:57:33;10;10;
69123;PMS5003;56232;53.384;-2.732;2023-04-30T14:59:58;12;12;
69123;PMS5003;56232;53.384;-2.732;2023-04-30T15:02:24;10;10;
69123;PMS5003;56232;53.384;-2.732;2023-04-30T15:04:50;9;9;
69123;PMS5003;56232;53.384;-2.732;2023-04-30T15:07:15;10;10;
69123;PMS5003;56232;53.384;-2.732;2023-04-30T15:09:41;11;10;
69123;PMS5003;56232;53.384;-2.732;2023-04-30T15:12:07;10;9;
69123;PMS5003;56232;53.384;-2.732;2023-04-30T15:14:32;9;9;
69123;PMS5003;56232;53.384;-2.732;2023-04-30T15:16:58;9;9;
69123;PMS5003;56232;53.384;-2.732;2023-04-30T15:19:23;8;8;
69123;PMS5003;56232;53.384;-2.732;2023-04-30T15:21:49;10;10;
69123;PMS5003;56232;53.384;-2.732;2023-04-30T15:24:15;6;6;
69123;PMS5003;56232;53.384;-2.732;2023-04-30T15:26:40;8;8;
69123;PMS5003;56232;53.384;-2.732;2023-04-30T15:29:06;8;8;
69123;PMS5003;56232;53.384;-2.732;2023-04-30T15:31:31;8;8;
69123;PMS5003;56232;53.384;-2.732;2023-04-30T15:33:57;10;10;
69123;PMS5003;56232;53.384;-2.732;2023-04-30T15:36:23;7;7;
69123;PMS5003;56232;53.384;-2.732;2023-04-30T15:38:48;7;7;
69123;PMS5003;56232;53.384;-2.732;2023-04-30T15:41:14;8;8;
69123;PMS5003;56232;53.384;-2.732;2023-04-30T15:43:39;8;8;
69123;PMS5003;56232;53.384;-2.732;2023-04-30T15:46:05;8;8;
69123;PMS5003;56232;53.384;-2.732;2023-04-30T15:48:31;7;7;
69123;PMS5003;56232;53.384;-2.732;2023-04-30T15:50:56;10;10;
69123;PMS5003;56232;53.384;-2.732;2023-04-30T15:53:22;9;8;
69123;PMS5003;56232;53.384;-2.732;2023-04-30T15:55:48;6;6;
69123;PMS5003;56232;53.384;-2.732;2023-04-30T15:58:13;8;8;
69123;PMS5003;56232;53.384;-2.732;2023-04-30T16:00:39;9;8;
69123;PMS5003;56232;53.384;-2.732;2023-04-30T16:03:05;7;7;
69123;PMS5003;56232;53.384;-2.732;2023-04-30T16:05:30;7;7;
69123;PMS5003;56232;53.384;-2.732;2023-04-30T16:07:56;7;7;
69123;PMS5003;56232;53.384;-2.732;2023-04-30T16:10:21;10;9;
69123;PMS5003;56232;53.384;-2.732;2023-04-30T16:12:47;8;8;
69123;PMS5003;56232;53.384;-2.732;2023-04-30T16:15:12;8;8;
69123;PMS5003;56232;53.384;-2.732;2023-04-30T16:17:38;8;8;
69123;PMS5003;56232;53.384;-2.732;2023-04-30T16:20:04;7;7;